Gobernador Crespo, Argentina
Current Conditions -  °F | °C
As of 6:00 AM on Thursday 27 Nov 2014 (Local Time) from SUSO Reporting Station
Clear Clear  
Wind Chill: 57°   Ceiling: Unl
Heat Index: 57°   Visibility: 6mi
Dew Point: 55°   Wind: 0mph
Humidity: 94%   Direction: NA
Pressure: 29.94"   Gusts: NA
Location:  30.38°S, 60.42°W
Report Text: SUSO 270900Z 00000KT CAVOK 14/13 Q1014
Loading
Personal Weather Stations






























Interactive Weather Map New forecast layout! Learn more

10-Day Weather Forecast

Advertisements
Track Severe Weather on mobile